createdAt,value
2022-09-06T00:00:12.953Z,101516.34
2022-09-06T00:02:40.591Z,101526.59
2022-09-06T00:05:08.729Z,101533.16
2022-09-06T00:07:35.618Z,101548.56
2022-09-06T00:10:03.161Z,101570.31
2022-09-06T00:12:30.226Z,101589.03
2022-09-06T00:14:59.095Z,101597.34
2022-09-06T00:17:27.698Z,101608.91
2022-09-06T00:19:54.271Z,101614.44
2022-09-06T00:22:20.793Z,101621.88
2022-09-06T00:24:47.372Z,101638.06
2022-09-06T00:27:13.929Z,101684.19
2022-09-06T00:29:40.745Z,101709.78
2022-09-06T00:32:08.501Z,101699.56
2022-09-06T00:34:35.136Z,101688.06
2022-09-06T00:37:01.773Z,101727.34
2022-09-06T00:39:28.466Z,101718.84
2022-09-06T00:41:55.263Z,101717.59
2022-09-06T00:44:21.807Z,101730.00
2022-09-06T00:46:51.342Z,101730.66
2022-09-06T00:49:26.246Z,101735.16
2022-09-06T00:51:59.522Z,101731.72
2022-09-06T00:54:26.405Z,101724.28
2022-09-06T00:56:53.786Z,101727.63
2022-09-06T00:59:20.437Z,101728.22
2022-09-06T01:01:47.173Z,101698.03
2022-09-06T01:04:14.442Z,101698.41
2022-09-06T01:06:53.704Z,101685.16
2022-09-06T01:09:32.661Z,101675.31
2022-09-06T01:12:06.288Z,101660.34
2022-09-06T01:14:46.106Z,101677.63
2022-09-06T01:17:28.758Z,101679.81
2022-09-06T01:20:24.084Z,101660.63
2022-09-06T01:23:28.854Z,101661.66
2022-09-06T01:26:01.388Z,101661.22
2022-09-06T01:28:33.906Z,101643.28
2022-09-06T01:31:11.624Z,101626.16
2022-09-06T01:34:04.939Z,101610.53
2022-09-06T01:37:06.327Z,101559.69
2022-09-06T01:39:32.606Z,101525.69
2022-09-06T01:42:05.485Z,101500.53
2022-09-06T01:44:33.058Z,101472.97
2022-09-06T01:47:22.589Z,101474.22
2022-09-06T01:50:12.559Z,101488.44
2022-09-06T01:52:59.504Z,101495.41
2022-09-06T01:55:28.691Z,101505.41
2022-09-06T01:58:01.410Z,101500.47
2022-09-06T02:00:28.058Z,101496.66
2022-09-06T02:02:54.757Z,101513.72
2022-09-06T02:05:44.406Z,101494.06
2022-09-06T02:08:48.548Z,101497.97
2022-09-06T02:11:16.501Z,101488.63
2022-09-06T02:13:55.062Z,101495.66
2022-09-06T02:16:25.974Z,101489.56
2022-09-06T02:19:08.284Z,101504.53
2022-09-06T02:21:38.361Z,101495.66
2022-09-06T02:24:09.149Z,101474.97
2022-09-06T02:26:40.096Z,101474.97
2022-09-06T02:29:09.429Z,101483.06
2022-09-06T02:31:45.024Z,101500.31
2022-09-06T02:34:15.139Z,101511.00
2022-09-06T02:36:41.908Z,101507.19
2022-09-06T02:39:08.891Z,101512.53
2022-09-06T02:41:36.044Z,101504.25
2022-09-06T02:44:02.817Z,101521.88
2022-09-06T02:46:29.373Z,101513.59
2022-09-06T02:48:56.135Z,101504.44
2022-09-06T02:51:22.694Z,101506.13
2022-09-06T02:53:49.191Z,101507.19
2022-09-06T02:56:18.112Z,101504.44
2022-09-06T02:58:44.737Z,101503.09
2022-09-06T03:01:11.356Z,101488.63
2022-09-06T03:03:38.117Z,101500.63
2022-09-06T03:06:04.917Z,101502.34
2022-09-06T03:08:34.131Z,101495.84
2022-09-06T03:11:03.421Z,101493.50
2022-09-06T03:13:30.162Z,101496.84
2022-09-06T03:15:59.711Z,101489.41
2022-09-06T03:18:30.818Z,101489.78
2022-09-06T03:20:58.369Z,101490.16
2022-09-06T03:23:27.428Z,101492.63
2022-09-06T03:25:57.348Z,101496.44
2022-09-06T03:28:26.595Z,101501.78
2022-09-06T03:30:53.666Z,101501.97
2022-09-06T03:33:20.665Z,101506.00
2022-09-06T03:35:58.924Z,101497.03
2022-09-06T03:38:27.238Z,101507.03
2022-09-06T03:40:54.665Z,101509.44
2022-09-06T03:43:23.632Z,101513.72
2022-09-06T03:45:57.023Z,101508.84
2022-09-06T03:48:25.787Z,101506.75
2022-09-06T03:50:57.374Z,101510.19
2022-09-06T03:53:25.884Z,101501.69
2022-09-06T03:55:54.121Z,101489.69
2022-09-06T03:58:23.270Z,101504.16
2022-09-06T04:00:50.682Z,101518.19
2022-09-06T04:03:19.506Z,101505.81
2022-09-06T04:05:46.952Z,101492.09
2022-09-06T04:08:15.663Z,101506.75
2022-09-06T04:10:42.275Z,101508.69
2022-09-06T04:13:13.634Z,101503.22
2022-09-06T04:15:40.488Z,101503.06
2022-09-06T04:18:09.237Z,101513.59
2022-09-06T04:20:36.062Z,101504.19
2022-09-06T04:23:02.589Z,101496.69
2022-09-06T04:25:29.207Z,101507.84
2022-09-06T04:27:55.745Z,101517.16
2022-09-06T04:30:22.243Z,101517.06
2022-09-06T04:32:48.794Z,101515.56
2022-09-06T04:35:15.427Z,101521.47
2022-09-06T04:37:41.993Z,101530.13
2022-09-06T04:40:09.626Z,101530.50
2022-09-06T04:42:36.421Z,101535.34
2022-09-06T04:45:02.990Z,101534.88
2022-09-06T04:47:32.068Z,101532.47
2022-09-06T04:49:58.605Z,101535.78
2022-09-06T04:52:30.206Z,101534.06
2022-09-06T04:54:57.200Z,101526.31
2022-09-06T04:57:23.809Z,101523.38
2022-09-06T04:59:50.363Z,101515.47
2022-09-06T05:02:23.093Z,101519.97
2022-09-06T05:04:49.688Z,101529.28
2022-09-06T05:11:08.194Z,101526.88
2022-09-06T05:13:35.715Z,101534.13
2022-09-06T05:16:03.930Z,101531.00
2022-09-06T05:18:30.933Z,101520.50
2022-09-06T05:20:58.920Z,101528.91
2022-09-06T05:23:26.270Z,101524.25
2022-09-06T05:25:52.901Z,101529.38
2022-09-06T05:28:23.282Z,101526.25
2022-09-06T05:30:49.916Z,101528.66
2022-09-06T05:33:21.695Z,101539.81
2022-09-06T05:35:48.923Z,101536.50
2022-09-06T05:38:15.520Z,101545.47
2022-09-06T05:40:42.265Z,101556.81
2022-09-06T05:43:09.015Z,101553.50
2022-09-06T05:45:37.897Z,101536.13
2022-09-06T05:48:04.827Z,101555.19
2022-09-06T05:50:31.371Z,101553.84
2022-09-06T05:53:02.474Z,101537.44
2022-09-06T05:55:29.035Z,101541.28
2022-09-06T05:57:55.600Z,101555.00
2022-09-06T06:00:22.282Z,101553.97
2022-09-06T06:02:49.994Z,101546.13
2022-09-06T06:05:16.725Z,101536.31
2022-09-06T06:07:43.254Z,101541.84
2022-09-06T06:10:10.138Z,101544.31
2022-09-06T06:12:36.775Z,101543.59
2022-09-06T06:15:05.737Z,101552.06
2022-09-06T06:17:35.109Z,101557.50
2022-09-06T06:20:02.009Z,101544.81
2022-09-06T06:22:28.583Z,101543.97
2022-09-06T06:24:55.371Z,101551.84
2022-09-06T06:27:21.895Z,101549.50
2022-09-06T06:29:48.780Z,101555.78
2022-09-06T06:32:17.798Z,101542.84
2022-09-06T06:34:44.302Z,101542.44
2022-09-06T06:37:13.061Z,101545.81
2022-09-06T06:39:39.657Z,101518.19
2022-09-06T06:42:06.502Z,101536.13
2022-09-06T06:44:36.070Z,101529.50
2022-09-06T06:47:02.740Z,101516.31
2022-09-06T06:49:32.591Z,101517.50
2022-09-06T06:51:59.249Z,101513.75
2022-09-06T06:54:25.793Z,101522.78
2022-09-06T06:56:52.478Z,101525.00
2022-09-06T06:59:19.043Z,101513.75
2022-09-06T07:01:45.763Z,101518.34
2022-09-06T07:04:14.206Z,101506.56
2022-09-06T07:12:24.633Z,101520.56
2022-09-06T07:14:54.070Z,101505.94
2022-09-06T07:17:22.690Z,101509.63
2022-09-06T07:22:35.873Z,101493.69
2022-09-06T07:25:03.738Z,101491.13
2022-09-06T07:30:14.384Z,101504.75
2022-09-06T07:32:41.078Z,101500.31
2022-09-06T07:35:08.138Z,101506.78
2022-09-06T07:37:34.662Z,101512.59
2022-09-06T07:40:01.243Z,101509.19
2022-09-06T07:42:27.795Z,101514.25
2022-09-06T07:44:57.709Z,101516.59
2022-09-06T07:53:14.839Z,101508.13
2022-09-06T07:55:42.633Z,101506.78
2022-09-06T07:58:09.176Z,101498.66
2022-09-06T08:00:36.271Z,101507.47
2022-09-06T08:03:02.964Z,101499.38
2022-09-06T08:11:03.217Z,101490.94
2022-09-06T08:13:29.914Z,101479.28
2022-09-06T08:16:05.448Z,101484.69
2022-09-06T08:18:32.955Z,101483.56
2022-09-06T08:21:12.677Z,101485.06
2022-09-06T08:23:52.766Z,101486.47
2022-09-06T08:26:22.384Z,101481.00
2022-09-06T08:28:53.418Z,101479.91
2022-09-06T08:31:19.970Z,101478.88
2022-09-06T08:33:47.727Z,101482.34
2022-09-06T08:36:15.181Z,101490.47
2022-09-06T08:38:41.763Z,101488.66
2022-09-06T08:41:13.904Z,101497.19
2022-09-06T08:47:10.936Z,101480.78
2022-09-06T08:49:40.285Z,101477.00
2022-09-06T08:52:30.967Z,101478.69
2022-09-06T08:55:19.299Z,101489.06
2022-09-06T08:58:13.895Z,101481.06
2022-09-06T09:00:47.120Z,101485.97
2022-09-06T09:03:22.030Z,101480.19
2022-09-06T09:05:52.727Z,101483.59
2022-09-06T09:08:31.519Z,101486.44
2022-09-06T09:11:10.361Z,101474.97
2022-09-06T09:13:42.762Z,101463.25
2022-09-06T09:16:09.343Z,101483.25
2022-09-06T09:18:42.393Z,101472.63
2022-09-06T09:21:09.988Z,101472.97
2022-09-06T09:23:39.033Z,101464.31
2022-09-06T09:26:11.789Z,101462.06
2022-09-06T09:28:38.368Z,101467.25
2022-09-06T09:31:07.534Z,101468.16
2022-09-06T09:33:38.681Z,101469.88
2022-09-06T09:36:13.011Z,101467.88
2022-09-06T09:38:49.783Z,101478.31
2022-09-06T09:41:34.549Z,101485.66
2022-09-06T09:44:06.282Z,101489.03
2022-09-06T09:46:35.661Z,101484.75
2022-09-06T09:49:08.802Z,101478.53
2022-09-06T09:51:40.934Z,101475.72
2022-09-06T09:54:12.931Z,101475.38
2022-09-06T09:56:41.377Z,101485.00
2022-09-06T09:59:35.907Z,101475.03
2022-09-06T10:02:27.536Z,101483.69
2022-09-06T10:05:02.243Z,101467.56
2022-09-06T10:07:31.597Z,101473.47
2022-09-06T10:10:27.235Z,101469.50
2022-09-06T10:13:09.027Z,101469.47
2022-09-06T10:15:40.901Z,101480.44
2022-09-06T10:18:30.046Z,101488.75
2022-09-06T10:21:01.563Z,101486.16
2022-09-06T10:26:53.000Z,101502.63
2022-09-06T10:29:42.146Z,101505.72
2022-09-06T10:32:33.532Z,101503.25
2022-09-06T10:35:16.390Z,101505.44
2022-09-06T10:38:20.026Z,101494.50
2022-09-06T10:41:08.606Z,101490.94
2022-09-06T10:44:01.410Z,101487.88
2022-09-06T10:46:30.101Z,101483.97
2022-09-06T10:48:57.047Z,101488.00
2022-09-06T10:51:40.614Z,101480.06
2022-09-06T10:54:10.990Z,101476.13
2022-09-06T10:56:39.772Z,101481.22
2022-09-06T11:02:20.181Z,101469.09
2022-09-06T11:07:41.969Z,101474.09
2022-09-06T11:10:25.400Z,101489.75
2022-09-06T11:13:19.928Z,101484.78
2022-09-06T11:16:03.000Z,101489.84
2022-09-06T11:18:32.587Z,101489.56
2022-09-06T11:21:36.632Z,101498.06
2022-09-06T11:24:15.981Z,101504.53
2022-09-06T11:27:16.367Z,101507.16
2022-09-06T11:29:47.157Z,101508.00
2022-09-06T11:32:39.517Z,101505.84
2022-09-06T11:35:32.236Z,101513.78
2022-09-06T11:38:03.453Z,101509.16
2022-09-06T11:40:37.823Z,101515.03
2022-09-06T11:43:04.288Z,101513.91
2022-09-06T11:45:50.471Z,101514.34
2022-09-06T11:48:35.208Z,101512.34
2022-09-06T11:51:11.012Z,101510.03
2022-09-06T11:53:49.701Z,101509.53
2022-09-06T11:56:42.595Z,101511.59
2022-09-06T11:59:24.136Z,101492.22
2022-09-06T12:01:59.696Z,101498.00
2022-09-06T12:05:01.687Z,101496.84
2022-09-06T12:07:31.374Z,101501.31
2022-09-06T12:10:21.030Z,101490.59
2022-09-06T12:12:52.625Z,101490.31
2022-09-06T12:15:31.155Z,101490.38
2022-09-06T12:17:59.781Z,101483.78
2022-09-06T12:20:48.151Z,101478.59
2022-09-06T12:23:52.862Z,101470.00
2022-09-06T12:26:51.868Z,101470.63
2022-09-06T12:29:28.324Z,101467.53
2022-09-06T12:32:03.998Z,101463.06
2022-09-06T12:34:33.536Z,101466.75
2022-09-06T12:37:09.220Z,101480.00
2022-09-06T12:39:35.956Z,101463.66
2022-09-06T12:42:08.539Z,101470.69
2022-09-06T12:44:43.013Z,101468.44
2022-09-06T12:47:25.702Z,101454.59
2022-09-06T12:50:13.234Z,101457.38
2022-09-06T12:52:50.251Z,101462.44
2022-09-06T12:55:33.749Z,101454.19
2022-09-06T12:58:12.527Z,101449.44
2022-09-06T13:00:52.787Z,101440.31
2022-09-06T13:03:45.352Z,101441.19
2022-09-06T13:06:26.982Z,101430.16
2022-09-06T13:08:57.301Z,101436.44
2022-09-06T13:11:38.665Z,101434.69
2022-09-06T13:14:35.251Z,101432.88
2022-09-06T13:17:02.280Z,101435.34
2022-09-06T13:19:33.759Z,101439.53
2022-09-06T13:22:01.813Z,101438.00
2022-09-06T13:24:37.255Z,101436.00
2022-09-06T13:27:23.252Z,101433.97
2022-09-06T13:29:57.219Z,101425.22
2022-09-06T13:32:24.126Z,101423.44
2022-09-06T13:34:57.865Z,101419.50
2022-09-06T13:37:28.979Z,101412.44
2022-09-06T13:39:57.720Z,101429.22
2022-09-06T13:42:33.168Z,101417.97
2022-09-06T13:45:16.941Z,101400.25
2022-09-06T13:47:43.530Z,101406.72
2022-09-06T13:50:13.036Z,101402.09
2022-09-06T13:52:39.627Z,101394.31
2022-09-06T13:55:07.191Z,101395.31
2022-09-06T13:57:33.946Z,101389.97
2022-09-06T14:00:00.561Z,101388.03
2022-09-06T14:02:27.315Z,101382.41
2022-09-06T14:04:53.897Z,101388.97
2022-09-06T14:07:22.936Z,101387.53
2022-09-06T14:09:51.894Z,101394.56
2022-09-06T14:12:23.089Z,101383.47
2022-09-06T14:14:52.295Z,101400.41
2022-09-06T14:17:19.206Z,101395.63
2022-09-06T14:19:46.178Z,101403.03
2022-09-06T14:22:13.629Z,101394.03
2022-09-06T14:24:40.161Z,101404.94
2022-09-06T14:27:08.551Z,101413.97
2022-09-06T14:29:35.698Z,101423.56
2022-09-06T14:32:04.816Z,101423.59
2022-09-06T14:34:31.580Z,101418.69
2022-09-06T14:36:58.181Z,101421.16
2022-09-06T14:39:24.753Z,101420.03
2022-09-06T14:41:52.129Z,101412.97
2022-09-06T14:44:18.740Z,101404.59
2022-09-06T14:46:47.882Z,101404.69
2022-09-06T14:49:17.404Z,101396.38
2022-09-06T14:51:44.241Z,101400.81
2022-09-06T14:54:13.685Z,101382.94
2022-09-06T14:56:42.147Z,101383.53
2022-09-06T14:59:09.180Z,101382.38
2022-09-06T15:01:38.537Z,101376.72
2022-09-06T15:04:09.367Z,101373.66
2022-09-06T15:06:39.196Z,101367.44
2022-09-06T15:09:11.775Z,101368.06
2022-09-06T15:11:42.719Z,101371.88
2022-09-06T15:14:15.512Z,101355.28
2022-09-06T15:16:43.084Z,101346.81
2022-09-06T15:19:10.145Z,101357.69
2022-09-06T15:21:36.944Z,101340.72
2022-09-06T15:24:07.316Z,101349.16
2022-09-06T15:26:36.641Z,101359.94
2022-09-06T15:29:03.440Z,101356.13
2022-09-06T15:31:33.113Z,101367.44
2022-09-06T15:34:01.617Z,101363.63
2022-09-06T15:36:30.278Z,101361.84
2022-09-06T15:39:00.977Z,101358.66
2022-09-06T15:41:29.545Z,101339.44
2022-09-06T15:43:58.228Z,101349.41
2022-09-06T15:46:38.455Z,101353.44
2022-09-06T15:49:10.448Z,101349.53
2022-09-06T15:51:40.491Z,101359.78
2022-09-06T15:54:07.203Z,101369.81
2022-09-06T15:56:36.233Z,101364.47
2022-09-06T15:59:03.480Z,101348.06
2022-09-06T16:01:30.177Z,101351.59
2022-09-06T16:04:05.588Z,101343.09
2022-09-06T16:06:37.614Z,101326.44
2022-09-06T16:09:10.765Z,101336.63
2022-09-06T16:11:40.234Z,101334.34
2022-09-06T16:14:09.724Z,101330.00
2022-09-06T16:16:36.821Z,101332.75
2022-09-06T16:19:03.937Z,101337.69
2022-09-06T16:21:32.517Z,101334.72
2022-09-06T16:24:00.762Z,101339.22
2022-09-06T16:26:32.911Z,101334.91
2022-09-06T16:29:00.449Z,101334.50
2022-09-06T16:31:28.997Z,101329.38
2022-09-06T16:33:57.415Z,101326.50
2022-09-06T16:36:24.736Z,101335.44
2022-09-06T16:38:51.672Z,101322.97
2022-09-06T16:41:22.639Z,101332.50
2022-09-06T16:43:49.493Z,101325.69
2022-09-06T16:46:16.730Z,101323.66
2022-09-06T16:48:43.846Z,101321.03
2022-09-06T16:51:13.337Z,101331.06
2022-09-06T16:53:45.110Z,101329.25
2022-09-06T16:56:14.652Z,101326.38
2022-09-06T16:58:42.084Z,101327.38
2022-09-06T17:01:12.235Z,101330.34
2022-09-06T17:03:39.882Z,101330.47
2022-09-06T17:06:07.262Z,101322.47
2022-09-06T17:08:35.062Z,101320.41
2022-09-06T17:11:29.371Z,101317.97
2022-09-06T17:13:56.898Z,101318.13
2022-09-06T17:16:42.741Z,101318.28
2022-09-06T17:19:12.054Z,101308.31
2022-09-06T17:21:40.052Z,101312.63
2022-09-06T17:24:08.302Z,101310.09
2022-09-06T17:26:36.486Z,101308.53
2022-09-06T17:29:07.488Z,101317.66
2022-09-06T17:31:34.887Z,101318.50
2022-09-06T17:34:01.799Z,101310.00
2022-09-06T17:36:33.021Z,101310.47
2022-09-06T17:39:08.596Z,101302.81
2022-09-06T17:41:46.005Z,101306.09
2022-09-06T17:44:15.231Z,101311.56
2022-09-06T17:46:52.259Z,101315.13
2022-09-06T17:49:30.272Z,101320.81
2022-09-06T17:51:57.170Z,101321.34
2022-09-06T17:54:23.941Z,101308.94
2022-09-06T17:56:52.764Z,101300.91
2022-09-06T17:59:22.159Z,101295.44
2022-09-06T18:01:48.862Z,101287.44
2022-09-06T18:04:16.077Z,101302.50
2022-09-06T18:06:43.793Z,101287.69
2022-09-06T18:09:14.648Z,101285.13
2022-09-06T18:11:42.075Z,101281.31
2022-09-06T18:14:11.754Z,101281.19
2022-09-06T18:16:40.379Z,101298.56
2022-09-06T18:19:08.528Z,101283.50
2022-09-06T18:21:37.948Z,101276.31
2022-09-06T18:24:05.168Z,101278.00
2022-09-06T18:26:31.752Z,101284.09
2022-09-06T18:29:00.991Z,101280.19
2022-09-06T18:31:28.447Z,101266.56
2022-09-06T18:34:01.158Z,101259.84
2022-09-06T18:36:32.409Z,101269.81
2022-09-06T18:39:04.677Z,101268.19
2022-09-06T18:41:51.584Z,101272.13
2022-09-06T18:44:21.094Z,101268.84
2022-09-06T18:46:48.622Z,101265.66
2022-09-06T18:49:15.861Z,101277.56
2022-09-06T18:51:42.840Z,101257.63
2022-09-06T18:54:15.215Z,101262.38
2022-09-06T18:56:44.780Z,101258.72
2022-09-06T18:59:12.174Z,101251.81
2022-09-06T19:01:39.017Z,101240.50
2022-09-06T19:04:06.776Z,101240.84
2022-09-06T19:06:35.531Z,101244.69
2022-09-06T19:09:05.813Z,101238.75
2022-09-06T19:11:35.588Z,101236.66
2022-09-06T19:14:02.649Z,101245.72
2022-09-06T19:16:29.773Z,101241.72
2022-09-06T19:18:57.002Z,101241.09
2022-09-06T19:21:25.612Z,101230.41
2022-09-06T19:23:58.913Z,101227.41
2022-09-06T19:26:29.923Z,101225.44
2022-09-06T19:28:59.862Z,101225.44
2022-09-06T19:31:30.269Z,101219.25
2022-09-06T19:33:57.574Z,101220.34
2022-09-06T19:36:26.189Z,101207.47
2022-09-06T19:39:06.332Z,101211.38
2022-09-06T19:41:42.964Z,101205.88
2022-09-06T19:44:13.271Z,101194.69
2022-09-06T19:46:45.064Z,101197.47
2022-09-06T19:49:13.375Z,101194.16
2022-09-06T19:51:43.838Z,101192.28
2022-09-06T19:54:13.030Z,101185.13
2022-09-06T19:56:41.933Z,101181.53
2022-09-06T19:59:12.958Z,101186.28
2022-09-06T20:01:41.395Z,101176.66
2022-09-06T20:04:11.666Z,101181.25
2022-09-06T20:06:39.036Z,101183.19
2022-09-06T20:09:11.558Z,101186.66
2022-09-06T20:11:41.096Z,101175.75
2022-09-06T20:14:08.582Z,101182.41
2022-09-06T20:16:38.244Z,101166.78
2022-09-06T20:19:10.395Z,101162.75
2022-09-06T20:21:36.994Z,101148.75
2022-09-06T20:24:03.609Z,101145.50
2022-09-06T20:26:30.575Z,101139.97
2022-09-06T20:28:59.184Z,101129.75
2022-09-06T20:31:32.452Z,101116.13
2022-09-06T20:34:01.360Z,101101.25
2022-09-06T20:36:28.426Z,101121.81
2022-09-06T20:38:55.296Z,101104.13
2022-09-06T20:41:25.668Z,101092.59
2022-09-06T20:43:53.855Z,101078.25
2022-09-06T20:46:24.430Z,101094.13
2022-09-06T20:48:52.053Z,101091.19
2022-09-06T20:51:21.518Z,101102.31
2022-09-06T20:53:52.791Z,101104.03
2022-09-06T20:56:24.849Z,101109.19
2022-09-06T20:58:56.749Z,101103.22
2022-09-06T21:01:25.371Z,101097.44
2022-09-06T21:03:54.816Z,101098.97
2022-09-06T21:06:24.658Z,101097.25
2022-09-06T21:08:55.172Z,101096.88
2022-09-06T21:11:22.374Z,101090.06
2022-09-06T21:13:56.036Z,101088.34
2022-09-06T21:16:25.122Z,101084.94
2022-09-06T21:19:02.613Z,101096.06
2022-09-06T21:21:33.064Z,101081.53
2022-09-06T21:24:01.259Z,101076.13
2022-09-06T21:26:30.640Z,101073.59
2022-09-06T21:28:58.354Z,101070.56
2022-09-06T21:31:31.786Z,101072.97
2022-09-06T21:34:02.123Z,101085.09
2022-09-06T21:36:31.440Z,101078.25
2022-09-06T21:39:02.778Z,101088.91
2022-09-06T21:41:30.923Z,101078.41
2022-09-06T21:44:00.237Z,101059.59
2022-09-06T21:46:32.893Z,101059.75
2022-09-06T21:49:03.853Z,101050.81
2022-09-06T21:51:31.147Z,101045.63
2022-09-06T21:53:58.499Z,101045.84
2022-09-06T21:56:25.795Z,101036.44
2022-09-06T21:58:58.494Z,101041.16
2022-09-06T22:01:29.505Z,101082.91
2022-09-06T22:03:58.957Z,101152.47
2022-09-06T22:06:28.844Z,101209.81
2022-09-06T22:08:57.798Z,101240.00
2022-09-06T22:11:29.022Z,101271.97
2022-09-06T22:13:59.327Z,101275.88
2022-09-06T22:16:27.412Z,101235.31
2022-09-06T22:18:56.862Z,101213.97
2022-09-06T22:21:24.482Z,101203.59
2022-09-06T22:23:56.344Z,101215.63
2022-09-06T22:26:26.466Z,101214.19
2022-09-06T22:28:58.337Z,101253.13
2022-09-06T22:31:29.095Z,101292.88
2022-09-06T22:33:58.886Z,101320.25
2022-09-06T22:36:25.642Z,101305.28
2022-09-06T22:38:58.681Z,101304.66
2022-09-06T22:41:27.290Z,101301.22
2022-09-06T22:43:56.505Z,101294.22
2022-09-06T22:46:23.225Z,101295.91
2022-09-06T22:48:49.785Z,101282.41
2022-09-06T22:51:16.556Z,101290.94
2022-09-06T22:53:45.353Z,101289.81
2022-09-06T22:56:11.954Z,101314.94
2022-09-06T22:58:40.883Z,101315.75
2022-09-06T23:01:10.385Z,101331.97
2022-09-06T23:03:37.838Z,101331.91
2022-09-06T23:06:06.879Z,101294.75
2022-09-06T23:08:37.943Z,101279.53
2022-09-06T23:11:17.998Z,101282.69
2022-09-06T23:13:46.142Z,101274.91
2022-09-06T23:16:18.363Z,101289.34
2022-09-06T23:18:46.265Z,101299.34
2022-09-06T23:21:15.670Z,101314.69
2022-09-06T23:23:45.809Z,101318.94
2022-09-06T23:26:18.985Z,101333.81
2022-09-06T23:28:46.046Z,101328.03
2022-09-06T23:31:16.863Z,101332.09
2022-09-06T23:33:44.237Z,101325.88
2022-09-06T23:36:16.372Z,101314.91
2022-09-06T23:38:43.566Z,101310.06
2022-09-06T23:41:13.471Z,101305.28
2022-09-06T23:43:41.632Z,101303.69
2022-09-06T23:46:09.488Z,101306.59
2022-09-06T23:48:36.371Z,101324.25
2022-09-06T23:51:03.762Z,101312.44
2022-09-06T23:53:33.042Z,101318.31
2022-09-06T23:55:59.792Z,101325.94
2022-09-06T23:58:26.429Z,101349.09
